• Join FlightAware (Why Join?)
  • Login
  • US Flag 
06:08PM EDT


 

Airport Tracker/Info


-or-


 

Live Flight TrackerFlight Track Log ✈ N789EX ✈ 13-Jun-2014 ✈ KBFI - KMWH

Flight Track Log - Related Links

Times and Time Zones

All times are in EDT time to prevent confusion due to time zone crossing. See the N789EX flight status page for this flight to view local times or setup timezone preferences in your user account.

Time Position Orientation Groundspeed Altitude Reporting Facility
EDT Latitude Longitude Course Direction KTS MPH feet Rate Location/Type
03:05PM 47.5107 -122.2850 146° Southeast 199 229 1,300  Level FlightAware ADS-B
03:05PM 47.4988 -122.2720 142° Southeast 231 266 1,700 1,980 Climbing FlightAware ADS-B
03:05PM 47.4847 -122.2560 143° Southeast 250 288 2,300 3,240 Climbing FlightAware ADS-B
03:06PM 47.4700 -122.2400 143° Southeast 258 297 3,400 4,200 Climbing FlightAware ADS-B
03:06PM 47.4627 -122.2320 142° Southeast 260 299 4,000 4,500 Climbing FlightAware ADS-B
03:06PM 47.4592 -122.2270 138° Southeast 261 300 4,300 4,260 Climbing FlightAware ADS-B
03:06PM 47.4567 -122.2230 130° Southeast 262 302 4,500 4,260 Climbing FlightAware ADS-B
03:06PM 47.4541 -122.2170 123° Southeast 264 304 4,800 5,100 Climbing FlightAware ADS-B
03:06PM 47.4519 -122.2110 116° Southeast 267 307 5,100 4,260 Climbing FlightAware ADS-B
03:06PM 47.4502 -122.2060 111° Southeast 269 310 5,300 3,600 Climbing FlightAware ADS-B
03:06PM 47.4526 -122.2136 108° East 270 311 5,400 4,500 Climbing FlightAware ADS-B (KPAE)
03:06PM 47.4488 -122.1990 105° East 270 311 5,600 4,980 Climbing FlightAware ADS-B
03:06PM 47.4479 -122.1920 101° East 273 314 5,900 4,500 Climbing FlightAware ADS-B
03:06PM 47.4474 -122.1840 95° East 275 316 6,200 3,840 Climbing FlightAware ADS-B
03:06PM 47.4468 -122.1698 94° East 279 321 6,800 3,960 Climbing FlightAware ADS-B (KPAE)
03:06PM 47.4462 -122.1550 93° East 280 322 7,200 3,960 Climbing FlightAware ADS-B
03:07PM 47.4452 -122.1260 93° East 284 327 8,200 4,140 Climbing FlightAware ADS-B
03:07PM 47.4445 -122.1038 93° East 289 333 9,000 3,960 Climbing FlightAware ADS-B (KPAE)
03:07PM 47.4442 -122.0960 93° East 290 334 9,200 3,240 Climbing FlightAware ADS-B
03:07PM 47.4425 -122.0340 92° East 312 359 10,900 3,000 Climbing FlightAware ADS-B
03:08PM 47.4425 -122.0337 93° East 321 369 11,000 1,380 Climbing FlightAware ADS-B (KPAE)
03:08PM 47.4400 -121.9640 93° East 367 422 11,600 1,260 Climbing FlightAware ADS-B
03:08PM 47.4394 -121.9478 94° East 381 438 11,700 1,140 Climbing FlightAware ADS-B (KPAE)
03:08PM 47.4365 -121.8820 94° East 415 478 12,200 2,820 Climbing FlightAware ADS-B
03:09PM 47.4326 -121.7960 94° East 416 479 14,200 4,500 Climbing FlightAware ADS-B
03:09PM 47.4301 -121.7408 94° East 404 465 16,200 4,800 Climbing FlightAware ADS-B
03:09PM 47.4290 -121.7120 93° East 404 465 16,600 1,320 Climbing FlightAware ADS-B
03:10PM 47.4275 -121.6329 91° East 434 499 17,000 780 Climbing FlightAware ADS-B (KPAE)
03:10PM 47.4274 -121.6280 91° East 435 501 17,000  Level FlightAware ADS-B
03:10PM 47.4269 -121.5370 91° East 441 507 17,000  Level FlightAware ADS-B
03:11PM 47.4270 -121.5435 91° East 441 507 17,000 -240 Level FlightAware ADS-B
03:11PM 47.4258 -121.4470 91° East 436 502 16,900  Descending FlightAware ADS-B
03:11PM 47.4253 -121.4098 91° East 438 504 17,000 180 Climbing FlightAware ADS-B
03:11PM 47.4246 -121.3570 91° East 436 502 17,000  Level FlightAware ADS-B
03:12PM 47.4234 -121.2849 91° East 437 503 17,000  Level FlightAware ADS-B
03:12PM 47.4230 -121.2680 92° East 437 503 17,000  Level FlightAware ADS-B
03:12PM 47.4223 -121.2341 92° East 448 516 17,000  Level FlightAware ADS-B
03:12PM 47.4212 -121.1760 92° East 449 517 17,000 120 Level FlightAware ADS-B
03:13PM 47.4193 -121.0840 92° East 448 516 17,100 120 Climbing FlightAware ADS-B
03:13PM 47.4189 -121.0642 92° East 449 517 17,100  Level FlightAware ADS-B
03:14PM 47.4174 -120.9910 92° East 449 517 17,100  Level FlightAware ADS-B
03:14PM 47.4171 -120.9754 92° East 450 518 17,100  Level FlightAware ADS-B
03:14PM 47.4157 -120.8990 92° East 450 518 17,100  Level FlightAware ADS-B
03:15PM 47.4136 -120.8050 92° East 449 517 17,100  Level FlightAware ADS-B
03:15PM 47.4169 -120.9601 92° East 448 516 17,100  Level FlightAware ADS-B
03:15PM 47.4116 -120.7110 92° East 448 516 17,100  Level FlightAware ADS-B
03:16PM 47.4169 -120.9601 92° East 450 518 17,100  Level FlightAware ADS-B
03:16PM 47.4084 -120.5640 92° East 450 518 17,100  Level FlightAware ADS-B
03:16PM 47.4062 -120.4690 92° East 450 518 17,100  Level FlightAware ADS-B
03:17PM 47.4033 -120.3520 92° East 450 518 17,100  Level FlightAware ADS-B
03:18PM 47.3991 -120.1860 92° East 449 517 17,100  Level FlightAware ADS-B
03:18PM 47.3963 -120.0780 92° East 449 517 17,100 -120 Level FlightAware ADS-B
03:19PM 47.3919 -119.9256 92° East 448 516 17,000 -60 Descending Seattle Center
03:20PM 47.3872 -119.7581 92° East 410 472 17,000  Level Seattle Center
03:21PM 47.3828 -119.5939 92° East 402 463 17,000  Level Seattle Center
03:22PM 47.3783 -119.4325 92° East 397 457 17,000  Level Seattle Center
03:23PM 47.3956 -119.2622 81° East 390 449 17,000  Level Seattle Center
03:24PM 47.4122 -119.1039 81° East 390 449 17,000  Level Seattle Center
03:25PM 47.4297 -118.9461 81° East 390 449 17,000  Level Seattle Center
03:26PM 47.4469 -118.7878 81° East 390 449 17,000  Level Seattle Center
03:28PM 47.4642 -118.6294 81° East 390 449 17,000  Level Seattle Center
03:29PM 47.4817 -118.4622 81° East 389 448 17,000  Level Seattle Center
03:30PM 47.4964 -118.3053 82° East 389 448 17,000  Level Seattle Center
03:31PM 47.5111 -118.1694 81° East 334 384 17,000  Level Seattle Center
03:32PM 47.5253 -118.0331 81° East 314 361 17,000  Level Seattle Center
03:33PM 47.5381 -117.9039 82° East 318 366 17,000  Level Seattle Center
03:34PM 47.5497 -117.7744 82° East 318 366 17,000 -60 Level Seattle Center
03:35PM 47.4806 -117.6978 143° Southeast 330 380 16,900 -60 Descending Seattle Center
03:36PM 47.4256 -117.7933 230° Southwest 323 372 16,900  Level Seattle Center
03:37PM 47.3894 -117.9147 246° West 322 371 16,900  Level Seattle Center
03:38PM 47.3531 -118.0364 246° West 323 372 16,900  Level Seattle Center
03:39PM 47.3133 -118.1672 246° West 324 373 16,900  Level Seattle Center
03:40PM 47.2753 -118.2886 245° Southwest 325 374 16,900  Level Seattle Center
03:41PM 47.2375 -118.4114 246° West 327 376 16,900  Level Seattle Center
03:42PM 47.2006 -118.5331 246° West 327 376 16,900  Level Seattle Center
03:43PM 47.1564 -118.6583 243° Southwest 325 374 16,900  Level Seattle Center
03:44PM 47.1028 -118.7692 235° Southwest 357 411 16,900  Level Seattle Center
03:45PM 47.1539 -118.8747 305° West 329 379 16,900  Level Seattle Center
03:46PM 47.2150 -118.9708 313° West 342 394 16,900  Level Seattle Center
03:47PM 47.1447 -119.0675 223° Southwest 353 406 16,900 -180 Level Seattle Center
03:48PM 47.0578 -119.1375 209° Southwest 357 411 16,600 -960 Descending Seattle Center
03:49PM 46.9592 -119.1506 185° South 357 411 15,000 -1,560 Descending Seattle Center
03:50PM 46.8717 -119.1883 196° South 338 389 13,500 -1,380 Descending Seattle Center
03:51PM 46.9039 -119.2872 296° West 291 335 12,200 -1,620 Descending Seattle Center
03:52PM 46.9808 -119.2900 359° North 275 316 10,300 -1,920 Descending Seattle Center
03:53PM 47.0481 -119.2925 359° North 279 321 8,400 -1,920 Descending Seattle Center
03:55PM 47.2000 -119.3167 341° North  Level FlightAware Approximate
04:02PM 47.2086 -119.3191 341° North  Level Estimated
04:03PM 47.2086 -119.3191 341° North  Level Estimated
04:04PM 47.2086 -119.3191 341° North  Level Estimated
04:05PM 47.2086 -119.3191 341° North  Level Estimated
04:06PM 47.2086 -119.3191 341° North  Level Estimated
04:07PM 47.2086 -119.3191 341° North  Level Estimated